createdAt,value
2022-12-18T00:01:42.506Z,101793.59
2022-12-18T00:04:16.493Z,101790.81
2022-12-18T00:06:43.180Z,101788.31
2022-12-18T00:09:11.432Z,101791.34
2022-12-18T00:11:38.135Z,101794.34
2022-12-18T00:14:04.691Z,101799.03
2022-12-18T00:16:33.981Z,101798.47
2022-12-18T00:19:00.891Z,101808.13
2022-12-18T00:21:28.668Z,101807.81
2022-12-18T00:23:55.428Z,101800.94
2022-12-18T00:26:27.225Z,101803.13
2022-12-18T00:29:01.355Z,101800.06
2022-12-18T00:31:30.740Z,101793.41
2022-12-18T00:33:57.852Z,101799.75
2022-12-18T00:36:26.955Z,101804.69
2022-12-18T00:38:57.043Z,101796.13
2022-12-18T00:41:42.965Z,101802.72
2022-12-18T00:44:11.311Z,101807.13
2022-12-18T00:46:38.031Z,101802.94
2022-12-18T00:49:05.033Z,101798.78
2022-12-18T00:51:31.714Z,101793.81
2022-12-18T00:53:58.751Z,101799.31
2022-12-18T00:56:25.827Z,101788.25
2022-12-18T00:58:53.188Z,101782.75
2022-12-18T01:01:20.486Z,101776.16
2022-12-18T01:03:47.734Z,101780.00
2022-12-18T01:06:17.259Z,101775.50
2022-12-18T01:08:44.086Z,101773.03
2022-12-18T01:11:14.440Z,101764.22
2022-12-18T01:13:41.964Z,101765.53
2022-12-18T01:16:10.093Z,101759.44
2022-12-18T01:18:36.914Z,101758.28
2022-12-18T01:21:07.380Z,101766.00
2022-12-18T01:23:34.153Z,101762.97
2022-12-18T01:26:05.214Z,101761.03
2022-12-18T01:28:31.958Z,101761.31
2022-12-18T01:30:59.046Z,101764.59
2022-12-18T01:33:25.854Z,101764.84
2022-12-18T01:35:52.591Z,101770.97
2022-12-18T01:38:21.222Z,101774.78
2022-12-18T01:40:47.872Z,101770.34
2022-12-18T01:43:14.648Z,101766.75
2022-12-18T01:45:41.616Z,101765.88
2022-12-18T01:48:09.715Z,101758.13
2022-12-18T01:50:39.505Z,101749.31
2022-12-18T01:53:14.006Z,101753.97
2022-12-18T01:55:48.161Z,101743.81
2022-12-18T01:58:15.181Z,101747.91
2022-12-18T02:00:42.899Z,101761.38
2022-12-18T02:03:09.853Z,101758.59
2022-12-18T02:05:39.043Z,101759.13
2022-12-18T02:08:05.915Z,101763.00
2022-12-18T02:10:46.728Z,101751.41
2022-12-18T02:13:33.695Z,101745.91
2022-12-18T02:16:10.828Z,101738.16
2022-12-18T02:18:43.145Z,101751.41
2022-12-18T02:21:17.720Z,101755.78
2022-12-18T02:23:44.319Z,101749.69
2022-12-18T02:26:23.093Z,101749.13
2022-12-18T02:28:54.967Z,101745.31
2022-12-18T02:31:26.391Z,101736.97
2022-12-18T02:33:54.872Z,101746.34
2022-12-18T02:36:22.676Z,101743.91
2022-12-18T02:38:50.369Z,101741.41
2022-12-18T02:41:17.883Z,101736.16
2022-12-18T02:43:49.023Z,101738.31
2022-12-18T02:46:26.550Z,101735.31
2022-12-18T02:48:57.583Z,101735.84
2022-12-18T02:51:47.226Z,101727.84
2022-12-18T02:54:24.665Z,101725.91
2022-12-18T02:56:55.132Z,101711.59
2022-12-18T02:59:30.694Z,101707.16
2022-12-18T03:02:19.659Z,101705.53
2022-12-18T03:05:10.121Z,101701.41
2022-12-18T03:07:58.504Z,101699.19
2022-12-18T03:10:31.299Z,101689.00
2022-12-18T03:13:08.661Z,101685.75
2022-12-18T03:15:43.469Z,101683.50
2022-12-18T03:18:26.607Z,101675.25
2022-12-18T03:20:54.735Z,101669.75
2022-12-18T03:23:26.451Z,101673.59
2022-12-18T03:25:57.731Z,101681.88
2022-12-18T03:28:29.256Z,101678.28
2022-12-18T03:31:01.718Z,101672.50
2022-12-18T03:33:33.604Z,101681.84
2022-12-18T03:36:00.217Z,101673.00
2022-12-18T03:38:27.416Z,101674.13
2022-12-18T03:40:54.511Z,101681.31
2022-12-18T03:43:29.070Z,101677.47
2022-12-18T03:46:00.663Z,101689.81
2022-12-18T03:48:27.320Z,101689.81
2022-12-18T03:50:58.329Z,101684.31
2022-12-18T03:53:44.161Z,101680.16
2022-12-18T03:56:13.533Z,101672.50
2022-12-18T03:58:42.232Z,101678.00
2022-12-18T04:01:24.128Z,101674.66
2022-12-18T04:03:52.232Z,101679.31
2022-12-18T04:06:20.449Z,101684.03
2022-12-18T04:08:47.686Z,101671.38
2022-12-18T04:11:18.268Z,101670.50
2022-12-18T04:13:47.054Z,101658.13
2022-12-18T04:16:21.933Z,101658.13
2022-12-18T04:18:52.582Z,101663.66
2022-12-18T04:21:20.891Z,101652.63
2022-12-18T04:23:49.142Z,101651.81
2022-12-18T04:26:18.313Z,101653.16
2022-12-18T04:28:54.922Z,101664.47
2022-12-18T04:31:21.790Z,101682.66
2022-12-18T04:33:48.936Z,101679.31
2022-12-18T04:36:15.800Z,101677.94
2022-12-18T04:38:43.495Z,101687.31
2022-12-18T04:41:14.043Z,101680.16
2022-12-18T04:43:41.922Z,101677.13
2022-12-18T04:46:10.005Z,101679.03
2022-12-18T04:48:37.153Z,101681.22
2022-12-18T04:51:04.936Z,101693.38
2022-12-18T04:53:31.899Z,101690.06
2022-12-18T04:56:04.846Z,101680.69
2022-12-18T04:58:31.589Z,101687.31
2022-12-18T05:00:58.208Z,101675.19
2022-12-18T05:03:27.940Z,101668.59
2022-12-18T05:05:54.650Z,101664.16
2022-12-18T05:08:21.313Z,101671.00
2022-12-18T05:10:48.068Z,101659.19
2022-12-18T05:13:14.788Z,101657.56
2022-12-18T05:15:42.963Z,101659.44
2022-12-18T05:18:09.963Z,101669.59
2022-12-18T05:20:39.604Z,101683.41
2022-12-18T05:23:06.262Z,101683.16
2022-12-18T05:25:33.020Z,101681.72
2022-12-18T05:27:59.593Z,101685.06
2022-12-18T05:30:28.655Z,101687.31
2022-12-18T05:32:55.308Z,101683.97
2022-12-18T05:35:22.682Z,101691.09
2022-12-18T05:37:49.474Z,101694.88
2022-12-18T05:40:16.222Z,101698.53
2022-12-18T05:42:42.908Z,101694.63
2022-12-18T05:45:09.666Z,101698.78
2022-12-18T05:47:36.361Z,101690.78
2022-12-18T05:50:03.037Z,101693.81
2022-12-18T05:52:29.643Z,101674.78
2022-12-18T05:54:56.407Z,101676.47
2022-12-18T05:57:22.913Z,101688.81
2022-12-18T05:59:49.758Z,101688.00
2022-12-18T06:02:16.580Z,101675.88
2022-12-18T06:04:43.363Z,101673.44
2022-12-18T06:07:10.184Z,101682.72
2022-12-18T06:09:37.051Z,101686.31
2022-12-18T06:12:03.880Z,101681.66
2022-12-18T06:14:30.632Z,101681.09
2022-12-18T06:16:57.274Z,101668.97
2022-12-18T06:19:23.924Z,101683.78
2022-12-18T06:21:51.213Z,101675.84
2022-12-18T06:24:17.863Z,101682.13
2022-12-18T06:26:44.461Z,101676.88
2022-12-18T06:29:11.037Z,101673.34
2022-12-18T06:31:37.883Z,101679.97
2022-12-18T06:34:05.465Z,101681.66
2022-12-18T06:36:32.185Z,101683.22
2022-12-18T06:38:58.812Z,101684.59
2022-12-18T06:41:25.582Z,101682.38
2022-12-18T06:43:56.841Z,101685.09
2022-12-18T06:46:26.084Z,101682.59
2022-12-18T06:48:55.156Z,101690.25
2022-12-18T06:51:22.882Z,101678.69
2022-12-18T06:53:50.791Z,101679.25
2022-12-18T06:56:17.771Z,101684.75
2022-12-18T06:58:44.666Z,101690.78
2022-12-18T07:01:12.178Z,101687.47
2022-12-18T07:03:42.853Z,101691.94
2022-12-18T07:06:19.975Z,101676.25
2022-12-18T07:08:46.958Z,101677.09
2022-12-18T07:11:13.845Z,101678.75
2022-12-18T07:13:40.874Z,101663.91
2022-12-18T07:16:15.008Z,101652.63
2022-12-18T07:18:44.604Z,101639.19
2022-12-18T07:21:13.533Z,101637.63
2022-12-18T07:23:41.067Z,101626.09
2022-12-18T07:26:09.787Z,101627.25
2022-12-18T07:28:37.154Z,101622.84
2022-12-18T07:31:04.881Z,101614.06
2022-12-18T07:33:31.477Z,101614.63
2022-12-18T07:36:00.025Z,101610.28
2022-12-18T07:38:27.402Z,101613.03
2022-12-18T07:40:54.336Z,101599.91
2022-12-18T07:43:21.161Z,101599.06
2022-12-18T07:45:50.287Z,101602.66
2022-12-18T07:48:16.934Z,101605.97
2022-12-18T07:50:43.665Z,101602.16
2022-12-18T07:53:10.514Z,101598.03
2022-12-18T07:55:59.853Z,101603.84
2022-12-18T07:58:24.424Z,101592.28
2022-12-18T08:00:51.419Z,101587.31
2022-12-18T08:03:18.043Z,101590.63
2022-12-18T08:05:44.777Z,101588.16
2022-12-18T08:08:11.581Z,101581.28
2022-12-18T08:10:38.597Z,101579.34
2022-12-18T08:13:05.553Z,101574.72
2022-12-18T08:15:32.332Z,101579.69
2022-12-18T08:17:59.033Z,101582.91
2022-12-18T08:20:25.805Z,101592.28
2022-12-18T08:22:52.617Z,101594.53
2022-12-18T08:25:19.323Z,101595.06
2022-12-18T08:27:46.039Z,101590.13
2022-12-18T08:30:12.813Z,101591.22
2022-12-18T08:32:39.500Z,101590.41
2022-12-18T08:35:06.979Z,101587.09
2022-12-18T08:37:33.618Z,101594.53
2022-12-18T08:40:00.358Z,101598.38
2022-12-18T08:42:45.510Z,101599.50
2022-12-18T08:45:12.088Z,101586.81
2022-12-18T08:47:38.912Z,101586.81
2022-12-18T08:50:05.951Z,101586.28
2022-12-18T08:52:33.348Z,101565.91
2022-12-18T08:55:00.124Z,101560.41
2022-12-18T08:57:26.963Z,101554.06
2022-12-18T08:59:53.515Z,101559.06
2022-12-18T09:02:20.661Z,101558.22
2022-12-18T09:04:52.368Z,101548.88
2022-12-18T09:07:22.174Z,101568.44
2022-12-18T09:09:48.830Z,101576.97
2022-12-18T09:12:15.401Z,101573.13
2022-12-18T09:14:42.139Z,101565.94
2022-12-18T09:17:08.958Z,101564.88
2022-12-18T09:19:35.934Z,101560.75
2022-12-18T09:22:02.790Z,101563.78
2022-12-18T09:24:29.576Z,101559.38
2022-12-18T09:26:58.115Z,101558.53
2022-12-18T09:29:24.966Z,101553.88
2022-12-18T09:31:51.786Z,101562.13
2022-12-18T09:34:18.681Z,101553.88
2022-12-18T09:36:45.418Z,101551.13
2022-12-18T09:39:12.233Z,101543.44
2022-12-18T09:41:38.823Z,101551.72
2022-12-18T09:44:15.490Z,101543.16
2022-12-18T09:46:45.755Z,101538.28
2022-12-18T09:49:15.769Z,101542.69
2022-12-18T09:51:51.888Z,101544.63
2022-12-18T09:54:24.065Z,101545.72
2022-12-18T09:56:51.053Z,101532.22
2022-12-18T09:59:20.962Z,101535.28
2022-12-18T10:01:47.900Z,101536.34
2022-12-18T10:04:14.752Z,101537.47
2022-12-18T10:06:41.702Z,101541.91
2022-12-18T10:09:26.486Z,101544.66
2022-12-18T10:12:11.986Z,101546.88
2022-12-18T10:14:51.192Z,101547.69
2022-12-18T10:17:39.261Z,101532.81
2022-12-18T10:20:11.629Z,101518.19
2022-12-18T10:22:47.107Z,101515.47
2022-12-18T10:25:20.600Z,101514.09
2022-12-18T10:27:48.039Z,101530.91
2022-12-18T10:30:15.937Z,101528.72
2022-12-18T10:32:43.043Z,101527.63
2022-12-18T10:35:17.288Z,101520.69
2022-12-18T10:38:00.457Z,101517.69
2022-12-18T10:40:27.093Z,101506.09
2022-12-18T10:43:12.867Z,101506.09
2022-12-18T10:45:40.399Z,101494.53
2022-12-18T10:48:19.146Z,101495.59
2022-12-18T10:51:10.228Z,101491.47
2022-12-18T10:53:37.390Z,101480.72
2022-12-18T10:56:05.541Z,101480.16
2022-12-18T10:58:33.842Z,101483.47
2022-12-18T11:01:17.297Z,101492.03
2022-12-18T11:04:02.310Z,101496.19
2022-12-18T11:06:30.247Z,101487.34
2022-12-18T11:09:12.313Z,101476.84
2022-12-18T11:11:41.207Z,101471.91
2022-12-18T11:14:13.802Z,101463.91
2022-12-18T11:17:23.655Z,101466.94
2022-12-18T11:19:36.808Z,101454.50
2022-12-18T11:22:18.193Z,101448.16
2022-12-18T11:25:29.514Z,101444.31
2022-12-18T11:27:41.348Z,101441.53
2022-12-18T11:30:10.727Z,101441.00
2022-12-18T11:32:43.722Z,101437.69
2022-12-18T11:35:39.858Z,101432.72
2022-12-18T11:38:19.058Z,101431.63
2022-12-18T11:40:48.713Z,101422.50
2022-12-18T11:43:23.162Z,101419.47
2022-12-18T11:45:50.635Z,101419.47
2022-12-18T11:48:19.232Z,101419.22
2022-12-18T11:50:49.830Z,101412.59
2022-12-18T11:53:16.884Z,101416.16
2022-12-18T11:55:55.820Z,101415.06
2022-12-18T11:58:31.602Z,101409.00
2022-12-18T12:01:15.455Z,101401.25
2022-12-18T12:04:00.793Z,101384.41
2022-12-18T12:07:02.756Z,101384.97
2022-12-18T12:09:35.195Z,101385.03
2022-12-18T12:12:35.967Z,101376.03
2022-12-18T12:15:13.534Z,101381.41
2022-12-18T12:17:42.917Z,101380.75
2022-12-18T12:20:09.775Z,101375.38
2022-12-18T12:22:54.392Z,101378.91
2022-12-18T12:25:40.661Z,101373.84
2022-12-18T12:28:25.350Z,101369.88
2022-12-18T12:31:10.595Z,101371.47
2022-12-18T12:33:43.337Z,101359.78
2022-12-18T12:36:49.220Z,101354.19
2022-12-18T12:39:19.262Z,101352.00
2022-12-18T12:42:06.042Z,101344.53
2022-12-18T12:44:56.438Z,101356.06
2022-12-18T12:47:26.473Z,101356.59
2022-12-18T12:49:55.159Z,101358.56
2022-12-18T12:52:29.561Z,101346.91
2022-12-18T12:54:57.241Z,101345.72
2022-12-18T12:57:31.687Z,101339.56
2022-12-18T12:59:59.051Z,101333.44
2022-12-18T13:02:35.686Z,101320.75
2022-12-18T13:05:03.743Z,101319.56
2022-12-18T13:07:36.603Z,101307.34
2022-12-18T13:10:20.885Z,101307.34
2022-12-18T13:13:01.902Z,101304.59
2022-12-18T13:15:39.797Z,101304.56
2022-12-18T13:18:09.048Z,101302.25
2022-12-18T13:23:32.623Z,101298.81
2022-12-18T13:25:59.228Z,101295.53
2022-12-18T13:28:41.228Z,101292.91
2022-12-18T13:31:08.024Z,101295.97
2022-12-18T13:33:34.845Z,101295.84
2022-12-18T13:36:10.863Z,101287.44
2022-12-18T13:38:39.116Z,101295.09
2022-12-18T13:41:23.644Z,101299.00
2022-12-18T13:43:51.386Z,101299.00
2022-12-18T13:46:24.138Z,101296.16
2022-12-18T13:48:59.410Z,101294.44
2022-12-18T13:51:27.128Z,101285.88
2022-12-18T13:53:59.327Z,101281.69
2022-12-18T13:56:30.357Z,101287.91
2022-12-18T13:59:26.429Z,101291.06
2022-12-18T14:02:02.768Z,101298.59
2022-12-18T14:04:32.455Z,101297.03
2022-12-18T14:07:03.058Z,101299.72
2022-12-18T14:09:31.224Z,101296.34
2022-12-18T14:12:17.904Z,101289.69
2022-12-18T14:14:46.279Z,101288.63
2022-12-18T14:17:13.279Z,101296.94
2022-12-18T14:19:44.619Z,101300.56
2022-12-18T14:22:30.715Z,101306.31
2022-12-18T14:25:16.116Z,101302.63
2022-12-18T14:27:44.347Z,101306.75
2022-12-18T14:30:29.664Z,101312.28
2022-12-18T14:33:12.650Z,101309.84
2022-12-18T14:35:41.118Z,101310.06
2022-12-18T14:38:26.430Z,101304.75
2022-12-18T14:40:54.325Z,101301.44
2022-12-18T14:43:21.204Z,101299.63
2022-12-18T14:45:48.373Z,101300.75
2022-12-18T14:48:19.098Z,101303.97
2022-12-18T14:51:09.303Z,101298.19
2022-12-18T14:53:41.884Z,101304.78
2022-12-18T14:56:28.608Z,101298.09
2022-12-18T14:58:57.328Z,101298.56
2022-12-18T15:01:26.416Z,101310.75
2022-12-18T15:03:54.248Z,101309.13
2022-12-18T15:06:27.209Z,101316.53
2022-12-18T15:08:54.287Z,101316.31
2022-12-18T15:11:44.358Z,101319.75
2022-12-18T15:14:29.625Z,101308.13
2022-12-18T15:16:57.303Z,101315.69
2022-12-18T15:19:28.720Z,101306.16
2022-12-18T15:21:55.307Z,101302.78
2022-12-18T15:24:25.547Z,101291.59
2022-12-18T15:26:52.201Z,101294.19
2022-12-18T15:29:23.146Z,101281.09
2022-12-18T15:32:03.204Z,101284.94
2022-12-18T15:34:30.375Z,101278.19
2022-12-18T15:36:57.070Z,101273.16
2022-12-18T15:39:24.401Z,101272.03
2022-12-18T15:42:09.736Z,101269.78
2022-12-18T15:44:36.484Z,101270.19
2022-12-18T15:47:03.099Z,101274.59
2022-12-18T15:49:29.700Z,101271.81
2022-12-18T15:51:58.815Z,101271.94
2022-12-18T15:54:44.089Z,101276.16
2022-12-18T15:57:29.439Z,101271.75
2022-12-18T15:59:59.397Z,101274.53
2022-12-18T16:02:26.536Z,101271.44
2022-12-18T16:04:53.482Z,101270.59
2022-12-18T16:07:25.064Z,101266.72
2022-12-18T16:09:52.927Z,101266.38
2022-12-18T16:12:23.576Z,101271.94
2022-12-18T16:14:50.166Z,101274.31
2022-12-18T16:17:16.906Z,101272.03
2022-12-18T16:19:43.675Z,101267.09
2022-12-18T16:22:22.017Z,101267.94
2022-12-18T16:24:49.004Z,101265.88
2022-12-18T16:27:15.597Z,101270.31
2022-12-18T16:29:42.183Z,101261.38
2022-12-18T16:32:12.789Z,101257.88
2022-12-18T16:34:39.573Z,101259.22
2022-12-18T16:37:08.043Z,101258.88
2022-12-18T16:39:35.706Z,101252.09
2022-12-18T16:42:05.879Z,101253.34
2022-12-18T16:44:33.994Z,101252.94
2022-12-18T16:47:25.975Z,101258.47
2022-12-18T16:49:53.554Z,101260.75
2022-12-18T16:52:20.681Z,101257.47
2022-12-18T16:54:47.287Z,101262.38
2022-12-18T16:57:15.572Z,101258.06
2022-12-18T16:59:42.464Z,101266.19
2022-12-18T17:02:17.187Z,101256.63
2022-12-18T17:08:01.954Z,101248.50
2022-12-18T17:10:28.627Z,101243.88
2022-12-18T17:12:55.357Z,101234.91
2022-12-18T17:15:22.133Z,101233.78
2022-12-18T17:17:48.881Z,101234.19
2022-12-18T17:20:15.576Z,101230.16
2022-12-18T17:22:42.305Z,101223.06
2022-12-18T17:25:09.143Z,101218.56
2022-12-18T17:27:35.897Z,101219.38
2022-12-18T17:30:02.972Z,101210.53
2022-12-18T17:32:29.748Z,101209.84
2022-12-18T17:34:56.508Z,101214.72
2022-12-18T17:37:23.268Z,101214.81
2022-12-18T17:39:50.115Z,101211.63
2022-12-18T17:42:16.889Z,101223.91
2022-12-18T17:44:44.060Z,101218.25
2022-12-18T17:47:12.364Z,101216.41
2022-12-18T17:49:39.271Z,101217.31
2022-12-18T17:52:05.995Z,101207.97
2022-12-18T17:54:33.350Z,101207.41
2022-12-18T17:57:00.122Z,101204.47
2022-12-18T17:59:26.883Z,101200.94
2022-12-18T18:01:53.663Z,101203.19
2022-12-18T18:04:20.742Z,101202.38
2022-12-18T18:06:47.500Z,101204.59
2022-12-18T18:09:16.478Z,101208.28
2022-12-18T18:12:03.054Z,101207.47
2022-12-18T18:14:29.995Z,101216.69
2022-12-18T18:16:56.873Z,101196.16
2022-12-18T18:19:25.850Z,101206.72
2022-12-18T18:21:54.667Z,101202.09
2022-12-18T18:24:23.518Z,101198.28
2022-12-18T18:26:50.329Z,101191.03
2022-12-18T18:29:21.703Z,101199.63
2022-12-18T18:31:48.803Z,101200.59
2022-12-18T18:34:16.977Z,101201.41
2022-12-18T18:36:43.821Z,101205.09
2022-12-18T18:39:10.761Z,101194.03
2022-12-18T18:41:37.631Z,101191.34
2022-12-18T18:44:04.580Z,101202.84
2022-12-18T18:46:31.267Z,101201.19
2022-12-18T18:48:58.871Z,101192.97
2022-12-18T18:51:28.852Z,101190.94
2022-12-18T18:54:00.037Z,101204.78
2022-12-18T18:59:18.453Z,101207.97
2022-12-18T19:01:45.621Z,101204.03
2022-12-18T19:04:12.502Z,101202.19
2022-12-18T19:06:41.614Z,101202.19
2022-12-18T19:09:08.667Z,101210.72
2022-12-18T19:11:53.953Z,101206.81
2022-12-18T19:14:20.878Z,101192.75
2022-12-18T19:16:47.765Z,101200.25
2022-12-18T19:19:15.006Z,101203.81
2022-12-18T19:21:41.901Z,101205.25
2022-12-18T19:24:10.203Z,101201.97
2022-12-18T19:26:37.579Z,101209.16
2022-12-18T19:29:06.337Z,101209.66
2022-12-18T19:31:36.105Z,101209.94
2022-12-18T19:34:04.918Z,101214.16
2022-12-18T19:36:32.259Z,101207.19
2022-12-18T19:38:59.948Z,101216.91
2022-12-18T19:41:29.215Z,101214.22
2022-12-18T19:43:58.487Z,101222.47
2022-12-18T19:46:25.423Z,101216.47
2022-12-18T19:48:52.276Z,101230.31
2022-12-18T19:51:23.882Z,101230.00
2022-12-18T19:53:56.416Z,101230.00
2022-12-18T19:56:26.441Z,101236.69
2022-12-18T19:58:53.827Z,101226.41
2022-12-18T20:01:21.452Z,101234.53
2022-12-18T20:03:52.735Z,101238.38
2022-12-18T20:06:26.087Z,101238.13
2022-12-18T20:08:54.031Z,101236.72
2022-12-18T20:11:25.988Z,101239.78
2022-12-18T20:13:52.784Z,101230.97
2022-12-18T20:16:19.652Z,101229.31
2022-12-18T20:18:46.430Z,101228.78
2022-12-18T20:21:14.201Z,101234.84
2022-12-18T20:23:41.603Z,101227.06
2022-12-18T20:26:08.748Z,101221.59
2022-12-18T20:28:35.910Z,101227.66
2022-12-18T20:31:04.671Z,101221.31
2022-12-18T20:33:32.208Z,101231.00
2022-12-18T20:36:06.393Z,101225.44
2022-12-18T20:38:35.048Z,101230.41
2022-12-18T20:41:02.633Z,101230.97
2022-12-18T20:43:30.123Z,101226.06
2022-12-18T20:46:03.387Z,101222.44
2022-12-18T20:48:30.705Z,101228.47
2022-12-18T20:50:58.371Z,101227.06
2022-12-18T20:53:27.837Z,101232.66
2022-12-18T20:55:54.708Z,101226.22
2022-12-18T20:58:21.469Z,101219.31
2022-12-18T21:00:48.332Z,101220.41
2022-12-18T21:03:15.136Z,101215.38
2022-12-18T21:05:42.040Z,101215.66
2022-12-18T21:08:09.849Z,101212.56
2022-12-18T21:10:39.284Z,101207.66
2022-12-18T21:13:08.764Z,101209.28
2022-12-18T21:15:37.958Z,101201.22
2022-12-18T21:18:04.816Z,101203.16
2022-12-18T21:20:31.731Z,101198.13
2022-12-18T21:23:04.042Z,101181.81
2022-12-18T21:25:42.914Z,101183.47
2022-12-18T21:28:09.595Z,101168.91
2022-12-18T21:30:36.497Z,101161.63
2022-12-18T21:33:03.484Z,101154.72
2022-12-18T21:35:31.431Z,101153.31
2022-12-18T21:37:58.907Z,101153.06
2022-12-18T21:40:25.708Z,101151.19
2022-12-18T21:43:11.249Z,101151.19
2022-12-18T21:45:42.851Z,101161.09
2022-12-18T21:48:09.537Z,101150.84
2022-12-18T21:50:36.293Z,101147.84
2022-12-18T21:53:03.176Z,101151.19
2022-12-18T21:55:30.030Z,101139.47
2022-12-18T21:57:56.943Z,101140.63
2022-12-18T22:00:23.745Z,101137.84
2022-12-18T22:03:17.757Z,101143.41
2022-12-18T22:05:37.128Z,101140.13
2022-12-18T22:08:03.815Z,101128.47
2022-12-18T22:10:30.728Z,101122.34
2022-12-18T22:12:57.544Z,101116.19
2022-12-18T22:15:24.268Z,101099.81
2022-12-18T22:17:59.728Z,101106.00
2022-12-18T22:20:27.664Z,101096.84
2022-12-18T22:22:56.024Z,101089.38
2022-12-18T22:25:22.723Z,101089.38
2022-12-18T22:28:07.707Z,101087.50
2022-12-18T22:30:34.635Z,101077.66
2022-12-18T22:33:01.440Z,101077.03
2022-12-18T22:35:28.173Z,101072.47
2022-12-18T22:37:54.904Z,101063.81
2022-12-18T22:40:25.808Z,101069.59
2022-12-18T22:42:53.984Z,101058.97
2022-12-18T22:45:20.669Z,101065.38
2022-12-18T22:47:47.232Z,101051.69
2022-12-18T22:50:14.560Z,101047.06
2022-12-18T22:52:41.365Z,101049.88
2022-12-18T22:55:08.180Z,101052.13
2022-12-18T22:57:34.875Z,101051.91
2022-12-18T23:00:03.180Z,101054.72
2022-12-18T23:02:29.959Z,101050.63
2022-12-18T23:04:56.770Z,101040.75
2022-12-18T23:07:23.353Z,101027.91
2022-12-18T23:09:50.593Z,101038.47
2022-12-18T23:12:20.946Z,101021.88
2022-12-18T23:14:47.800Z,101026.56
2022-12-18T23:17:14.420Z,101018.41
2022-12-18T23:19:47.188Z,101019.22
2022-12-18T23:22:15.737Z,101023.06
2022-12-18T23:24:42.550Z,101012.88
2022-12-18T23:27:11.504Z,101000.19
2022-12-18T23:29:38.300Z,100992.84
2022-12-18T23:32:04.890Z,100990.75
2022-12-18T23:34:31.524Z,100984.31
2022-12-18T23:36:58.249Z,100978.63
2022-12-18T23:39:29.664Z,100971.50
2022-12-18T23:41:57.690Z,100973.69
2022-12-18T23:44:24.396Z,100995.84
2022-12-18T23:46:51.216Z,100989.75
2022-12-18T23:49:17.887Z,100982.94
2022-12-18T23:51:44.436Z,100986.38
2022-12-18T23:54:11.098Z,100998.69
2022-12-18T23:56:37.793Z,100988.78
2022-12-18T23:59:04.826Z,100998.31
